sensor_id;sensor_type;location;lat;lon;timestamp;pressure;altitude;pressure_sealevel;temperature;humidity
74437;BME280;62868;52.360;30.424;2023-04-10T00:00:58;1033.7;;;9.7;59.2
74437;BME280;62868;52.360;30.424;2023-04-10T00:06:32;1033.7;;;9.7;59.2
74437;BME280;62868;52.360;30.424;2023-04-10T00:11:44;1033.7;;;9.6;59.3
74437;BME280;62868;52.360;30.424;2023-04-10T00:16:18;1033.7;;;9.6;59.4
74437;BME280;62868;52.360;30.424;2023-04-10T00:21:46;1033.7;;;9.5;59.5
74437;BME280;62868;52.360;30.424;2023-04-10T00:26:08;1033.7;;;9.4;59.5
74437;BME280;62868;52.360;30.424;2023-04-10T00:31:34;1033.7;;;9.4;59.6
74437;BME280;62868;52.360;30.424;2023-04-10T00:36:44;1033.7;;;9.4;59.6
74437;BME280;62868;52.360;30.424;2023-04-10T00:41:08;1033.8;;;9.4;59.7
74437;BME280;62868;52.360;30.424;2023-04-10T00:46:06;1033.8;;;9.3;59.8
74437;BME280;62868;52.360;30.424;2023-04-10T00:51:08;1033.8;;;9.4;59.8
74437;BME280;62868;52.360;30.424;2023-04-10T00:56:44;1033.8;;;9.4;59.9
74437;BME280;62868;52.360;30.424;2023-04-10T01:01:42;1033.8;;;9.3;60.1
74437;BME280;62868;52.360;30.424;2023-04-10T01:06:00;1033.8;;;9.3;60.1
74437;BME280;62868;52.360;30.424;2023-04-10T01:11:09;1033.8;;;9.3;60.2
74437;BME280;62868;52.360;30.424;2023-04-10T01:16:00;1033.8;;;9.3;60.3
74437;BME280;62868;52.360;30.424;2023-04-10T01:21:34;1033.7;;;9.3;60.3
74437;BME280;62868;52.360;30.424;2023-04-10T01:26:52;1033.7;;;9.3;60.3
74437;BME280;62868;52.360;30.424;2023-04-10T01:30:58;1033.8;;;9.3;60.4
74437;BME280;62868;52.360;30.424;2023-04-10T01:36:20;1033.8;;;9.3;60.5
74437;BME280;62868;52.360;30.424;2023-04-10T01:41:08;1033.9;;;9.3;60.6
74437;BME280;62868;52.360;30.424;2023-04-10T01:46:32;1033.9;;;9.2;60.7
74437;BME280;62868;52.360;30.424;2023-04-10T01:51:44;1033.9;;;9.2;60.8
74437;BME280;62868;52.360;30.424;2023-04-10T01:55:58;1033.9;;;9.2;60.9
74437;BME280;62868;52.360;30.424;2023-04-10T02:00:58;1033.9;;;9.1;61
74437;BME280;62868;52.360;30.424;2023-04-10T02:06:17;1033.9;;;9.1;61.1
74437;BME280;62868;52.360;30.424;2023-04-10T02:11:20;1033.9;;;9.1;61.1
74437;BME280;62868;52.360;30.424;2023-04-10T02:16:44;1033.9;;;9.1;61.2
74437;BME280;62868;52.360;30.424;2023-04-10T02:20:58;1033.9;;;9.1;61.3
74437;BME280;62868;52.360;30.424;2023-04-10T02:26:16;1033.9;;;9;61.4
74437;BME280;62868;52.360;30.424;2023-04-10T02:30:58;1034;;;9;61.5
74437;BME280;62868;52.360;30.424;2023-04-10T02:36:35;1034;;;8.9;61.6
74437;BME280;62868;52.360;30.424;2023-04-10T02:41:46;1034;;;8.9;61.8
74437;BME280;62868;52.360;30.424;2023-04-10T02:46:08;1034;;;8.8;61.9
74437;BME280;62868;52.360;30.424;2023-04-10T02:51:08;1034;;;8.8;62
74437;BME280;62868;52.360;30.424;2023-04-10T02:55:58;1034;;;8.8;62
74437;BME280;62868;52.360;30.424;2023-04-10T03:01:10;1034.1;;;8.8;62
74437;BME280;62868;52.360;30.424;2023-04-10T03:06:44;1034.1;;;8.7;62.1
74437;BME280;62868;52.360;30.424;2023-04-10T03:11:08;1034.1;;;8.7;62.2
74437;BME280;62868;52.360;30.424;2023-04-10T03:16:16;1034.1;;;8.8;62.2
74437;BME280;62868;52.360;30.424;2023-04-10T03:21:18;1034.1;;;8.8;62.3
74437;BME280;62868;52.360;30.424;2023-04-10T03:26:26;1034.1;;;8.8;62.3
74437;BME280;62868;52.360;30.424;2023-04-10T03:31:44;1034.1;;;9;62.2
74437;BME280;62868;52.360;30.424;2023-04-10T03:35:58;1034.1;;;9.1;62
74437;BME280;62868;52.360;30.424;2023-04-10T03:41:18;1034.1;;;9.3;61.9
74437;BME280;62868;52.360;30.424;2023-04-10T03:46:08;1034.2;;;9.9;61.4
74437;BME280;62868;52.360;30.424;2023-04-10T03:51:22;1034.1;;;10.4;60.8
74437;BME280;62868;52.360;30.424;2023-04-10T03:56:44;1034.1;;;10.8;60.5
74437;BME280;62868;52.360;30.424;2023-04-10T04:01:26;1034.1;;;11.6;59.3
74437;BME280;62868;52.360;30.424;2023-04-10T04:06:16;1034.1;;;11.5;59.6
74437;BME280;62868;52.360;30.424;2023-04-10T04:10:58;1034.1;;;11.9;59.1
74437;BME280;62868;52.360;30.424;2023-04-10T04:16:32;1034.2;;;11.6;59.5
74437;BME280;62868;52.360;30.424;2023-04-10T04:21:44;1034.3;;;11.5;59.8
74437;BME280;62868;52.360;30.424;2023-04-10T04:26:28;1034.3;;;11.6;59.7
74437;BME280;62868;52.360;30.424;2023-04-10T04:31:44;1034.3;;;12;59.4
74437;BME280;62868;52.360;30.424;2023-04-10T04:36:08;1034.3;;;12.3;59.1
74437;BME280;62868;52.360;30.424;2023-04-10T04:41:24;1034.3;;;12.6;58.9
74437;BME280;62868;52.360;30.424;2023-04-10T04:46:42;1034.4;;;13;58.5
74437;BME280;62868;52.360;30.424;2023-04-10T04:51:32;1034.4;;;13.2;58.4
74437;BME280;62868;52.360;30.424;2023-04-10T04:55:58;1034.4;;;13.4;58.3
74437;BME280;62868;52.360;30.424;2023-04-10T05:01:08;1034.4;;;13.1;58.5
74437;BME280;62868;52.360;30.424;2023-04-10T05:06:32;1034.5;;;13;58.5
74437;BME280;62868;52.360;30.424;2023-04-10T05:11:44;1034.5;;;13.1;58.1
74437;BME280;62868;52.360;30.424;2023-04-10T05:16:32;1034.6;;;13.1;57.9
74437;BME280;62868;52.360;30.424;2023-04-10T05:21:18;1034.7;;;13.2;57.8
74437;BME280;62868;52.360;30.424;2023-04-10T05:26:18;1034.7;;;13.2;57.7
74437;BME280;62868;52.360;30.424;2023-04-10T05:31:32;1034.7;;;13.3;57.6
74437;BME280;62868;52.360;30.424;2023-04-10T05:36:44;1034.7;;;13.3;57.7
74437;BME280;62868;52.360;30.424;2023-04-10T05:41:32;1034.8;;;13.2;57.7
74437;BME280;62868;52.360;30.424;2023-04-10T05:45:58;1034.7;;;13.2;57.7
74437;BME280;62868;52.360;30.424;2023-04-10T05:51:06;1034.8;;;13.2;57.7
74437;BME280;62868;52.360;30.424;2023-04-10T05:56:32;1034.8;;;13.3;57.6
74437;BME280;62868;52.360;30.424;2023-04-10T06:01:46;1034.8;;;13.6;57.3
74437;BME280;62868;52.360;30.424;2023-04-10T06:06:10;1034.8;;;14.2;56.9
74437;BME280;62868;52.360;30.424;2023-04-10T06:11:06;1034.8;;;14.5;56.6
74437;BME280;62868;52.360;30.424;2023-04-10T06:16:16;1034.8;;;14.7;56.5
74437;BME280;62868;52.360;30.424;2023-04-10T06:21:16;1034.8;;;15.1;56.1
74437;BME280;62868;52.360;30.424;2023-04-10T06:26:44;1034.8;;;15.4;55.8
74437;BME280;62868;52.360;30.424;2023-04-10T06:31:32;1034.8;;;15.6;55.6
74437;BME280;62868;52.360;30.424;2023-04-10T06:36:08;1034.9;;;15.3;55.7
74437;BME280;62868;52.360;30.424;2023-04-10T06:40:58;1034.8;;;15.6;55.4
74437;BME280;62868;52.360;30.424;2023-04-10T06:46:32;1034.8;;;15.9;55
74437;BME280;62868;52.360;30.424;2023-04-10T06:51:42;1034.8;;;16.3;54.6
74437;BME280;62868;52.360;30.424;2023-04-10T06:56:32;1034.9;;;16.3;54.7
74437;BME280;62868;52.360;30.424;2023-04-10T07:01:20;1034.9;;;16.5;54.5
74437;BME280;62868;52.360;30.424;2023-04-10T07:05:58;1034.9;;;16.6;54.2
74437;BME280;62868;52.360;30.424;2023-04-10T07:11:32;1034.9;;;16.3;54.3
74437;BME280;62868;52.360;30.424;2023-04-10T07:16:46;1034.9;;;16.7;53.6
74437;BME280;62868;52.360;30.424;2023-04-10T07:21:32;1034.8;;;17.2;53.1
74437;BME280;62868;52.360;30.424;2023-04-10T07:26:08;1034.9;;;17.6;52.5
74437;BME280;62868;52.360;30.424;2023-04-10T07:31:10;1034.9;;;18;52.1
74437;BME280;62868;52.360;30.424;2023-04-10T07:36:24;1034.9;;;18.5;51.5
74437;BME280;62868;52.360;30.424;2023-04-10T07:41:44;1034.9;;;18.8;50.9
74437;BME280;62868;52.360;30.424;2023-04-10T07:46:30;1034.8;;;19.2;50.3
74437;BME280;62868;52.360;30.424;2023-04-10T07:51:16;1034.8;;;19.7;49.5
74437;BME280;62868;52.360;30.424;2023-04-10T07:56:24;1034.7;;;20.1;48.8
74437;BME280;62868;52.360;30.424;2023-04-10T08:01:42;1034.7;;;20.4;48
74437;BME280;62868;52.360;30.424;2023-04-10T08:06:42;1034.7;;;20.5;47.8
74437;BME280;62868;52.360;30.424;2023-04-10T08:11:31;1034.6;;;20.7;47.2
74437;BME280;62868;52.360;30.424;2023-04-10T08:16:21;1034.6;;;20.8;46.7
74437;BME280;62868;52.360;30.424;2023-04-10T08:21:08;1034.6;;;20.4;46.5
74437;BME280;62868;52.360;30.424;2023-04-10T08:26:30;1034.6;;;20.6;46.3
74437;BME280;62868;52.360;30.424;2023-04-10T08:31:42;1034.6;;;20.9;45.5
74437;BME280;62868;52.360;30.424;2023-04-10T08:36:30;1034.6;;;20.1;45.6
74437;BME280;62868;52.360;30.424;2023-04-10T08:41:09;1034.6;;;19.4;45.7
74437;BME280;62868;52.360;30.424;2023-04-10T08:46:08;1034.5;;;19.2;45.7
74437;BME280;62868;52.360;30.424;2023-04-10T08:51:25;1034.5;;;19.2;45.4
74437;BME280;62868;52.360;30.424;2023-04-10T08:56:42;1034.5;;;19.2;45.2
74437;BME280;62868;52.360;30.424;2023-04-10T09:01:30;1034.5;;;19.3;45
74437;BME280;62868;52.360;30.424;2023-04-10T09:06:18;1034.5;;;19.5;44.9
74437;BME280;62868;52.360;30.424;2023-04-10T09:10:58;1034.5;;;19.7;44.6
74437;BME280;62868;52.360;30.424;2023-04-10T09:16:30;1034.5;;;19.7;44.5
74437;BME280;62868;52.360;30.424;2023-04-10T09:21:40;1034.5;;;19.8;44.3
74437;BME280;62868;52.360;30.424;2023-04-10T09:26:29;1034.5;;;19.9;44.1
74437;BME280;62868;52.360;30.424;2023-04-10T09:31:26;1034.5;;;20.4;43.8
74437;BME280;62868;52.360;30.424;2023-04-10T09:36:41;1034.5;;;20.1;43.6
74437;BME280;62868;52.360;30.424;2023-04-10T09:41:26;1034.5;;;19.9;43.5
74437;BME280;62868;52.360;30.424;2023-04-10T09:46:42;1034.4;;;19.8;43.2
74437;BME280;62868;52.360;30.424;2023-04-10T09:51:33;1034.4;;;20.1;43
74437;BME280;62868;52.360;30.424;2023-04-10T09:56:18;1034.4;;;20.2;42.8
74437;BME280;62868;52.360;30.424;2023-04-10T10:00:58;1034.4;;;20;42.9
74437;BME280;62868;52.360;30.424;2023-04-10T10:06:29;1034.4;;;20;42.7
74437;BME280;62868;52.360;30.424;2023-04-10T10:11:26;1034.3;;;19.7;42.7
74437;BME280;62868;52.360;30.424;2023-04-10T10:16:27;1034.3;;;20;42.3
74437;BME280;62868;52.360;30.424;2023-04-10T10:20:58;1034.3;;;20.1;41.8
74437;BME280;62868;52.360;30.424;2023-04-10T10:26:08;1034.2;;;20.3;41.4
74437;BME280;62868;52.360;30.424;2023-04-10T10:31:33;1034.2;;;20.8;40.8
74437;BME280;62868;52.360;30.424;2023-04-10T10:36:40;1034.1;;;21.3;40.4
74437;BME280;62868;52.360;30.424;2023-04-10T10:41:25;1034.1;;;21.4;40.1
74437;BME280;62868;52.360;30.424;2023-04-10T10:46:11;1034.1;;;21.6;40
74437;BME280;62868;52.360;30.424;2023-04-10T10:51:08;1034.1;;;21.6;39.7
74437;BME280;62868;52.360;30.424;2023-04-10T10:56:33;1034;;;21.9;39.5
74437;BME280;62868;52.360;30.424;2023-04-10T11:01:54;1034;;;22.4;39.1
74437;BME280;62868;52.360;30.424;2023-04-10T11:07:02;1033.9;;;22.5;38.9
74437;BME280;62868;52.360;30.424;2023-04-10T11:11:18;1033.8;;;22.8;38.7
74437;BME280;62868;52.360;30.424;2023-04-10T11:16:09;1033.8;;;23.2;38.3
74437;BME280;62868;52.360;30.424;2023-04-10T11:21:30;1033.7;;;23;38.1
74437;BME280;62868;52.360;30.424;2023-04-10T11:26:42;1033.7;;;22.8;38.3
74437;BME280;62868;52.360;30.424;2023-04-10T11:31:30;1033.7;;;22;38.7
74437;BME280;62868;52.360;30.424;2023-04-10T11:36:36;1033.7;;;21.1;39.3
74437;BME280;62868;52.360;30.424;2023-04-10T11:41:16;1033.7;;;20.8;39.6
74437;BME280;62868;52.360;30.424;2023-04-10T11:46:28;1033.7;;;20.4;39.9
74437;BME280;62868;52.360;30.424;2023-04-10T11:51:44;1033.6;;;20.3;39.9
74437;BME280;62868;52.360;30.424;2023-04-10T11:56:30;1033.6;;;20.2;39.9
74437;BME280;62868;52.360;30.424;2023-04-10T12:01:20;1033.7;;;20.1;39.7
74437;BME280;62868;52.360;30.424;2023-04-10T12:06:36;1033.6;;;19.2;39.9
74437;BME280;62868;52.360;30.424;2023-04-10T12:11:30;1033.5;;;18.7;39.9
74437;BME280;62868;52.360;30.424;2023-04-10T12:16:42;1033.4;;;18.5;39.6
74437;BME280;62868;52.360;30.424;2023-04-10T12:21:12;1033.3;;;18.4;39.2
74437;BME280;62868;52.360;30.424;2023-04-10T12:26:46;1033.2;;;18.4;38.8
74437;BME280;62868;52.360;30.424;2023-04-10T12:31:10;1033.2;;;18.7;38.5
74437;BME280;62868;52.360;30.424;2023-04-10T12:36:49;1033.2;;;19;38.2
74437;BME280;62868;52.360;30.424;2023-04-10T12:41:00;1033.2;;;19.3;38.1
74437;BME280;62868;52.360;30.424;2023-04-10T12:46:21;1033.2;;;19.6;37.8
74437;BME280;62868;52.360;30.424;2023-04-10T12:51:47;1033.1;;;20;37.4
74437;BME280;62868;52.360;30.424;2023-04-10T12:55:59;1033;;;20.4;37.1
74437;BME280;62868;52.360;30.424;2023-04-10T13:01:45;1033;;;20.8;36.9
74437;BME280;62868;52.360;30.424;2023-04-10T13:06:41;1033;;;21.1;37
74437;BME280;62868;52.360;30.424;2023-04-10T13:11:04;1032.9;;;21.3;37
74437;BME280;62868;52.360;30.424;2023-04-10T13:16:44;1032.9;;;21.3;37
74437;BME280;62868;52.360;30.424;2023-04-10T13:21:08;1032.8;;;21;37.1
74437;BME280;62868;52.360;30.424;2023-04-10T13:26:44;1032.8;;;20.6;37.2
74437;BME280;62868;52.360;30.424;2023-04-10T13:31:34;1032.7;;;20.2;37.4
74437;BME280;62868;52.360;30.424;2023-04-10T13:36:28;1032.7;;;19.9;37.8
74437;BME280;62868;52.360;30.424;2023-04-10T13:41:44;1032.8;;;19.7;38
74437;BME280;62868;52.360;30.424;2023-04-10T13:45:58;1032.8;;;19.5;38.3
74437;BME280;62868;52.360;30.424;2023-04-10T13:51:43;1032.9;;;19.1;38.7
74437;BME280;62868;52.360;30.424;2023-04-10T13:56:44;1032.9;;;18.4;39.5
74437;BME280;62868;52.360;30.424;2023-04-10T14:01:12;1032.7;;;17.9;40.1
74437;BME280;62868;52.360;30.424;2023-04-10T14:06:46;1032.8;;;17.5;40.7
74437;BME280;62868;52.360;30.424;2023-04-10T14:10:58;1032.8;;;17.5;40.9
74437;BME280;62868;52.360;30.424;2023-04-10T14:16:44;1032.8;;;17.4;41.1
74437;BME280;62868;52.360;30.424;2023-04-10T14:21:36;1032.8;;;17.6;41.1
74437;BME280;62868;52.360;30.424;2023-04-10T14:26:06;1032.8;;;17.7;41.3
74437;BME280;62868;52.360;30.424;2023-04-10T14:31:38;1032.7;;;17.6;41.6
74437;BME280;62868;52.360;30.424;2023-04-10T14:35:58;1032.8;;;17.5;41.7
74437;BME280;62868;52.360;30.424;2023-04-10T14:41:42;1032.8;;;17.5;41.8
74437;BME280;62868;52.360;30.424;2023-04-10T14:46:34;1032.8;;;17.6;41.8
74437;BME280;62868;52.360;30.424;2023-04-10T14:51:06;1032.8;;;17.7;41.7
74437;BME280;62868;52.360;30.424;2023-04-10T14:56:46;1032.8;;;17.8;41.6
74437;BME280;62868;52.360;30.424;2023-04-10T15:00:58;1032.9;;;17.8;41.6
74437;BME280;62868;52.360;30.424;2023-04-10T15:06:46;1032.9;;;17.5;41.9
74437;BME280;62868;52.360;30.424;2023-04-10T15:11:36;1032.9;;;17.1;42.1
74437;BME280;62868;52.360;30.424;2023-04-10T15:16:14;1032.8;;;16.7;42.4
74437;BME280;62868;52.360;30.424;2023-04-10T15:21:16;1032.7;;;16.5;42.5
74437;BME280;62868;52.360;30.424;2023-04-10T15:26:09;1032.5;;;16.5;42.6
74437;BME280;62868;52.360;30.424;2023-04-10T15:31:44;1032.5;;;16.5;42.8
74437;BME280;62868;52.360;30.424;2023-04-10T15:36:36;1032.5;;;16.5;42.8
74437;BME280;62868;52.360;30.424;2023-04-10T15:40:58;1032.5;;;16.4;42.9
74437;BME280;62868;52.360;30.424;2023-04-10T15:46:28;1032.5;;;16.5;43
74437;BME280;62868;52.360;30.424;2023-04-10T15:51:08;1032.5;;;16.4;43.3
74437;BME280;62868;52.360;30.424;2023-04-10T15:56:44;1032.5;;;16.2;43.6
74437;BME280;62868;52.360;30.424;2023-04-10T16:01:36;1032.5;;;16;44
74437;BME280;62868;52.360;30.424;2023-04-10T16:06:14;1032.4;;;15.8;44.4
74437;BME280;62868;52.360;30.424;2023-04-10T16:11:44;1032.4;;;15.7;44.7
74437;BME280;62868;52.360;30.424;2023-04-10T16:16:12;1032.4;;;15.6;45.1
74437;BME280;62868;52.360;30.424;2023-04-10T16:21:46;1032.3;;;15.4;45.4
74437;BME280;62868;52.360;30.424;2023-04-10T16:26:36;1032.3;;;15.3;45.6
74437;BME280;62868;52.360;30.424;2023-04-10T16:31:16;1032.4;;;15.1;45.8
74437;BME280;62868;52.360;30.424;2023-04-10T16:36:46;1032.4;;;14.9;46.2
74437;BME280;62868;52.360;30.424;2023-04-10T16:41:08;1032.4;;;14.7;46.5
74437;BME280;62868;52.360;30.424;2023-04-10T16:46:28;1032.4;;;14.6;46.7
74437;BME280;62868;52.360;30.424;2023-04-10T16:51:46;1032.4;;;14.5;47
74437;BME280;62868;52.360;30.424;2023-04-10T16:55:58;1032.3;;;14.3;47.4
74437;BME280;62868;52.360;30.424;2023-04-10T17:01:46;1032.3;;;14.1;47.6
74437;BME280;62868;52.360;30.424;2023-04-10T17:05:58;1032.4;;;14;47.7
74437;BME280;62868;52.360;30.424;2023-04-10T17:11:29;1032.4;;;13.9;48
74437;BME280;62868;52.360;30.424;2023-04-10T17:16:44;1032.4;;;13.7;48.4
74437;BME280;62868;52.360;30.424;2023-04-10T17:21:04;1032.4;;;13.5;48.6
74437;BME280;62868;52.360;30.424;2023-04-10T17:26:44;1032.4;;;13.3;49
74437;BME280;62868;52.360;30.424;2023-04-10T17:31:08;1032.4;;;13.1;49.2
74437;BME280;62868;52.360;30.424;2023-04-10T17:36:26;1032.4;;;12.9;49.6
74437;BME280;62868;52.360;30.424;2023-04-10T17:41:44;1032.5;;;12.7;49.9
74437;BME280;62868;52.360;30.424;2023-04-10T17:45:58;1032.5;;;12.6;50.2
74437;BME280;62868;52.360;30.424;2023-04-10T17:51:42;1032.5;;;12.5;50.4
74437;BME280;62868;52.360;30.424;2023-04-10T17:56:15;1032.5;;;12.4;50.6
74437;BME280;62868;52.360;30.424;2023-04-10T18:01:30;1032.5;;;12.3;50.9
74437;BME280;62868;52.360;30.424;2023-04-10T18:06:00;1032.5;;;12.1;51.2
74437;BME280;62868;52.360;30.424;2023-04-10T18:11:30;1032.5;;;11.9;51.5
74437;BME280;62868;52.360;30.424;2023-04-10T18:16:45;1032.5;;;11.8;51.8
74437;BME280;62868;52.360;30.424;2023-04-10T18:21:00;1032.5;;;11.7;51.9
74437;BME280;62868;52.360;30.424;2023-04-10T18:26:28;1032.5;;;11.6;52.2
74437;BME280;62868;52.360;30.424;2023-04-10T18:31:44;1032.5;;;11.5;52.4
74437;BME280;62868;52.360;30.424;2023-04-10T18:36:08;1032.5;;;11.4;52.6
74437;BME280;62868;52.360;30.424;2023-04-10T18:41:24;1032.5;;;11.3;52.7
74437;BME280;62868;52.360;30.424;2023-04-10T18:46:08;1032.5;;;11.3;53
74437;BME280;62868;52.360;30.424;2023-04-10T18:51:18;1032.5;;;11.2;53.3
74437;BME280;62868;52.360;30.424;2023-04-10T18:56:44;1032.5;;;11.1;53.4
74437;BME280;62868;52.360;30.424;2023-04-10T19:01:16;1032.5;;;11;53.7
74437;BME280;62868;52.360;30.424;2023-04-10T19:06:46;1032.5;;;10.9;53.9
74437;BME280;62868;52.360;30.424;2023-04-10T19:10:58;1032.5;;;10.8;54.1
74437;BME280;62868;52.360;30.424;2023-04-10T19:16:30;1032.6;;;10.8;54.3
74437;BME280;62868;52.360;30.424;2023-04-10T19:21:44;1032.6;;;10.7;54.4
74437;BME280;62868;52.360;30.424;2023-04-10T19:26:16;1032.6;;;10.6;54.6
74437;BME280;62868;52.360;30.424;2023-04-10T19:31:44;1032.6;;;10.6;54.8
74437;BME280;62868;52.360;30.424;2023-04-10T19:36:20;1032.5;;;10.5;55
74437;BME280;62868;52.360;30.424;2023-04-10T19:41:30;1032.5;;;10.4;55.2
74437;BME280;62868;52.360;30.424;2023-04-10T19:46:46;1032.5;;;10.4;55.4
74437;BME280;62868;52.360;30.424;2023-04-10T19:51:04;1032.5;;;10.3;55.6
74437;BME280;62868;52.360;30.424;2023-04-10T19:56:18;1032.5;;;10.3;55.7
74437;BME280;62868;52.360;30.424;2023-04-10T20:01:00;1032.5;;;10.3;55.7
74437;BME280;62868;52.360;30.424;2023-04-10T20:06:28;1032.5;;;10.2;56
74437;BME280;62868;52.360;30.424;2023-04-10T20:11:44;1032.5;;;10.1;56.2
74437;BME280;62868;52.360;30.424;2023-04-10T20:16:14;1032.5;;;10.1;56.3
74437;BME280;62868;52.360;30.424;2023-04-10T20:21:44;1032.5;;;10;56.5
74437;BME280;62868;52.360;30.424;2023-04-10T20:26:22;1032.4;;;9.9;56.6
74437;BME280;62868;52.360;30.424;2023-04-10T20:31:28;1032.4;;;9.8;56.8
74437;BME280;62868;52.360;30.424;2023-04-10T20:36:44;1032.4;;;9.7;57
74437;BME280;62868;52.360;30.424;2023-04-10T20:41:14;1032.5;;;9.7;57
74437;BME280;62868;52.360;30.424;2023-04-10T20:46:44;1032.5;;;9.6;57.1
74437;BME280;62868;52.360;30.424;2023-04-10T20:51:26;1032.6;;;9.6;57.1
74437;BME280;62868;52.360;30.424;2023-04-10T20:56:26;1032.6;;;9.5;57.4
74437;BME280;62868;52.360;30.424;2023-04-10T21:00:58;1032.6;;;9.5;57.6
74437;BME280;62868;52.360;30.424;2023-04-10T21:06:29;1032.5;;;9.5;57.9
74437;BME280;62868;52.360;30.424;2023-04-10T21:11:44;1032.5;;;9.5;58.1
74437;BME280;62868;52.360;30.424;2023-04-10T21:16:08;1032.5;;;9.6;58.3
74437;BME280;62868;52.360;30.424;2023-04-10T21:21:28;1032.5;;;9.5;58.4
74437;BME280;62868;52.360;30.424;2023-04-10T21:26:08;1032.4;;;9.5;58.5
74437;BME280;62868;52.360;30.424;2023-04-10T21:31:08;1032.4;;;9.4;58.7
74437;BME280;62868;52.360;30.424;2023-04-10T21:36:44;1032.4;;;9.4;58.7
74437;BME280;62868;52.360;30.424;2023-04-10T21:41:36;1032.3;;;9.3;58.9
74437;BME280;62868;52.360;30.424;2023-04-10T21:46:16;1032.3;;;9.2;59
74437;BME280;62868;52.360;30.424;2023-04-10T21:51:22;1032.3;;;9.1;59
74437;BME280;62868;52.360;30.424;2023-04-10T21:56:08;1032.2;;;9.1;59.1
74437;BME280;62868;52.360;30.424;2023-04-10T22:01:44;1032.2;;;9.1;59.2
74437;BME280;62868;52.360;30.424;2023-04-10T22:05:59;1032.1;;;9;59.4
74437;BME280;62868;52.360;30.424;2023-04-10T22:11:20;1032.1;;;9;59.5
74437;BME280;62868;52.360;30.424;2023-04-10T22:16:10;1032.1;;;8.9;59.5
74437;BME280;62868;52.360;30.424;2023-04-10T22:21:16;1032.1;;;8.9;59.6
74437;BME280;62868;52.360;30.424;2023-04-10T22:26:44;1032.1;;;8.8;59.6
74437;BME280;62868;52.360;30.424;2023-04-10T22:31:22;1032;;;8.8;59.8
74437;BME280;62868;52.360;30.424;2023-04-10T22:36:30;1032;;;8.7;59.9
74437;BME280;62868;52.360;30.424;2023-04-10T22:41:12;1032;;;8.7;59.9
74437;BME280;62868;52.360;30.424;2023-04-10T22:46:14;1032;;;8.7;60
74437;BME280;62868;52.360;30.424;2023-04-10T22:51:44;1031.9;;;8.7;60.1
74437;BME280;62868;52.360;30.424;2023-04-10T22:56:09;1031.9;;;8.7;60.2
74437;BME280;62868;52.360;30.424;2023-04-10T23:01:28;1031.9;;;8.7;60.3
74437;BME280;62868;52.360;30.424;2023-04-10T23:05:58;1031.9;;;8.6;60.3
74437;BME280;62868;52.360;30.424;2023-04-10T23:11:16;1031.8;;;8.6;60.3
74437;BME280;62868;52.360;30.424;2023-04-10T23:16:44;1031.9;;;8.5;60.4
74437;BME280;62868;52.360;30.424;2023-04-10T23:21:02;1031.8;;;8.4;60.5
74437;BME280;62868;52.360;30.424;2023-04-10T23:26:28;1031.8;;;8.3;60.5
74437;BME280;62868;52.360;30.424;2023-04-10T23:30:58;1031.7;;;8.3;60.6
74437;BME280;62868;52.360;30.424;2023-04-10T23:36:14;1031.6;;;8.2;60.6
74437;BME280;62868;52.360;30.424;2023-04-10T23:41:44;1031.6;;;8.2;60.7
74437;BME280;62868;52.360;30.424;2023-04-10T23:46:08;1031.6;;;8.1;60.8
74437;BME280;62868;52.360;30.424;2023-04-10T23:51:16;1031.6;;;8;60.8
74437;BME280;62868;52.360;30.424;2023-04-10T23:56:12;1031.6;;;8;60.9
